Time;durP1;ratioP1;P1;durP2;ratioP2;P2;SDS_P1;SDS_P2;PMS_P1;PMS_P2;Temp;Humidity;BMP_temperature;BMP_pressure;BME280_temperature;BME280_humidity;BME280_pressure;Samples;Min_cycle;Max_cycle;Signal;HPM_P1;HPM_P2
2022/01/16 00:01:34;;;;;;;12.33;8.30;;;;;;;0.11;50.66;95788.03;6164642;23;20222;-62
2022/01/16 00:06:22;;;;;;;11.20;7.60;;;;;;;0.03;51.63;95762.50;6165206;23;20240;-63
2022/01/16 00:08:48;;;;;;;11.50;7.67;;;;;;;-0.02;51.88;95743.78;6174852;23;20218;-62
2022/01/16 00:11:13;;;;;;;11.40;7.97;;;;;;;0.02;52.90;95752.22;6168754;23;20260;-63
2022/01/16 00:13:39;;;;;;;10.97;7.40;;;;;;;0.05;52.88;95767.59;6169370;23;20257;-63
2022/01/16 00:16:04;;;;;;;10.27;8.37;;;;;;;0.12;53.52;95771.59;6169278;23;20201;-64
2022/01/16 00:18:41;;;;;;;10.53;8.23;;;;;;;0.16;53.99;95789.50;6193910;23;20193;-63
2022/01/16 00:21:07;;;;;;;11.30;8.27;;;;;;;0.08;55.27;95803.66;6169319;23;20189;-66
2022/01/16 00:23:32;;;;;;;9.70;7.33;;;;;;;0.03;55.91;95821.97;6168648;23;20201;-63
2022/01/16 00:25:58;;;;;;;11.00;8.53;;;;;;;0.06;56.04;95836.53;6194304;23;20194;-64
2022/01/16 00:28:24;;;;;;;9.43;7.57;;;;;;;0.03;56.95;95845.25;6168481;23;20198;-63
2022/01/16 00:30:51;;;;;;;11.37;8.53;;;;;;;0.03;57.11;95881.44;6169120;23;20197;-66
2022/01/16 00:33:17;;;;;;;8.83;7.43;;;;;;;0.07;57.39;95882.97;6194706;23;20186;-66
2022/01/16 00:35:43;;;;;;;10.60;8.50;;;;;;;0.06;57.84;95783.06;6167938;23;20213;-66
2022/01/16 00:38:09;;;;;;;10.33;8.80;;;;;;;0.02;58.06;95765.16;6168921;23;20198;-65
2022/01/16 00:40:35;;;;;;;11.43;8.93;;;;;;;-0.04;58.63;95834.31;6168172;23;20263;-68
2022/01/16 00:43:01;;;;;;;9.70;8.10;;;;;;;0.02;58.84;95770.31;6167955;23;20194;-64
2022/01/16 00:45:29;;;;;;;9.80;8.33;;;;;;;-0.01;58.88;95681.63;6168203;23;20272;-63
2022/01/16 00:47:55;;;;;;;10.33;8.90;;;;;;;-0.02;59.37;95734.25;6169396;23;20186;-65
2022/01/16 00:50:21;;;;;;;11.23;8.67;;;;;;;-0.05;59.59;95693.03;6168964;23;20245;-64
2022/01/16 00:52:46;;;;;;;11.57;9.03;;;;;;;-0.08;59.47;95633.72;6193493;23;20279;-64
2022/01/16 00:55:12;;;;;;;12.83;9.13;;;;;;;0.01;59.35;95675.56;6193112;23;20272;-67
2022/01/16 00:57:37;;;;;;;11.30;8.70;;;;;;;-0.07;59.83;95661.25;6167548;23;20177;-64
2022/01/16 01:00:05;;;;;;;11.33;8.73;;;;;;;-0.07;59.85;95675.94;6169318;23;20230;-63
2022/01/16 01:02:30;;;;;;;10.07;8.97;;;;;;;-0.02;59.97;95721.34;6168427;23;20216;-66
2022/01/16 01:04:56;;;;;;;11.73;8.20;;;;;;;-0.03;59.93;95755.88;6167442;23;20210;-67
2022/01/16 01:07:21;;;;;;;10.20;8.37;;;;;;;0.05;59.69;95739.97;6193435;23;20260;-64
2022/01/16 01:09:47;;;;;;;10.53;8.50;;;;;;;0.02;59.68;95721.19;6169979;23;20210;-66
2022/01/16 01:12:24;;;;;;;9.83;8.17;;;;;;;-0.08;60.03;95737.13;6171151;23;20189;-64
2022/01/16 01:15:07;;;;;;;9.10;8.17;;;;;;;-0.02;60.30;95765.28;6170109;23;20189;-63
2022/01/16 01:17:37;;;;;;;9.07;7.70;;;;;;;-0.04;60.35;95725.72;6196687;23;20194;-64
2022/01/16 01:20:05;;;;;;;9.07;8.13;;;;;;;0.01;60.11;95732.47;6195517;23;20193;-66
2022/01/16 01:22:31;;;;;;;11.30;8.13;;;;;;;-0.01;60.05;95743.69;6196489;23;20212;-64
2022/01/16 01:24:56;;;;;;;10.97;8.63;;;;;;;-0.04;60.24;95719.72;6170159;23;20206;-63
2022/01/16 01:27:26;;;;;;;9.97;7.80;;;;;;;-0.09;60.46;95737.19;6196665;23;20174;-66
2022/01/16 01:30:06;;;;;;;9.80;8.07;;;;;;;-0.01;60.40;95743.69;6195400;23;20189;-64
2022/01/16 01:32:33;;;;;;;11.00;8.67;;;;;;;-0.06;60.51;95731.88;6194584;23;20200;-63
2022/01/16 01:34:59;;;;;;;10.57;8.70;;;;;;;-0.08;60.23;95721.63;6170410;23;20202;-64
2022/01/16 01:37:25;;;;;;;9.93;7.90;;;;;;;0.03;59.79;95735.78;6169778;23;20213;-64
2022/01/16 01:39:51;;;;;;;9.77;8.20;;;;;;;0.00;60.00;95760.06;6170121;23;20197;-64
2022/01/16 01:42:17;;;;;;;8.30;7.43;;;;;;;-0.03;60.24;95758.47;6196786;23;20178;-65
2022/01/16 01:52:58;;;;;;;9.07;7.73;;;;;;;0.10;59.99;95788.91;6195856;23;20217;-65
2022/01/16 01:55:25;;;;;;;8.33;7.20;;;;;;;0.10;59.74;95773.41;6194282;23;20228;-64
2022/01/16 01:57:51;;;;;;;8.43;6.97;;;;;;;0.13;59.66;95787.00;6170147;23;20205;-64
2022/01/16 02:00:18;;;;;;;8.13;6.90;;;;;;;0.10;59.59;95783.75;6195778;23;20212;-64
2022/01/16 02:05:19;;;;;;;8.70;7.03;;;;;;;0.07;59.97;95768.38;6196401;23;20212;-64
2022/01/16 02:07:45;;;;;;;9.33;6.50;;;;;;;0.07;60.10;95773.53;6170152;23;20194;-63
2022/01/16 02:10:11;;;;;;;8.67;6.70;;;;;;;0.04;60.10;95790.03;6195466;23;20210;-64
2022/01/16 02:12:41;;;;;;;8.73;7.10;;;;;;;0.12;59.98;95800.03;6169341;23;20185;-64
2022/01/16 02:15:32;;;;;;;8.73;7.63;;;;;;;0.06;60.21;95806.31;6168748;23;20174;-64
2022/01/16 02:29:39;;;;;;;10.00;7.53;;;;;;;-0.13;61.32;95793.38;6195303;23;20201;-67
2022/01/16 02:37:00;;;;;;;11.57;9.53;;;;;;;-0.26;62.06;95798.25;6195905;23;20220;-63
2022/01/16 02:39:28;;;;;;;10.97;9.70;;;;;;;-0.30;62.39;95782.94;6168677;23;20178;-66
2022/01/16 02:41:54;;;;;;;12.00;10.23;;;;;;;-0.29;62.95;95776.88;6194780;23;20240;-63
2022/01/16 02:46:46;;;;;;;12.60;11.30;;;;;;;-0.35;65.00;95769.38;6195445;23;20210;-65
2022/01/16 02:49:33;;;;;;;13.83;11.13;;;;;;;-0.34;65.14;95778.81;6194918;23;20202;-63
2022/01/16 02:52:01;;;;;;;13.73;11.00;;;;;;;-0.43;65.40;95763.69;6195334;23;20205;-65
2022/01/16 02:54:30;;;;;;;14.87;12.17;;;;;;;-0.35;65.37;95782.28;6170413;23;20182;-63
2022/01/16 02:56:56;;;;;;;16.30;12.27;;;;;;;-0.50;65.72;95771.72;6195555;23;20178;-62
2022/01/16 02:59:22;;;;;;;13.80;12.03;;;;;;;-0.53;65.95;95774.44;6195023;23;20194;-63
2022/01/16 03:01:48;;;;;;;13.53;10.93;;;;;;;-0.45;65.72;95768.94;6169313;23;20249;-63
2022/01/16 03:04:16;;;;;;;13.07;11.43;;;;;;;-0.54;65.71;95767.56;6168174;23;20206;-63
2022/01/16 03:06:42;;;;;;;14.00;11.50;;;;;;;-0.52;65.80;95772.69;6167495;23;20193;-62
2022/01/16 03:09:08;;;;;;;15.50;11.37;;;;;;;-0.54;65.93;95762.41;6194757;23;20202;-66
2022/01/16 03:11:42;;;;;;;13.30;10.60;;;;;;;-0.41;65.55;95767.91;6168909;23;20202;-65
2022/01/16 03:14:10;;;;;;;13.20;11.13;;;;;;;-0.41;65.73;95761.91;6167855;23;20216;-62
2022/01/16 03:16:37;;;;;;;12.77;10.63;;;;;;;-0.39;65.48;95768.66;6168808;23;20306;-65
2022/01/16 03:21:54;;;;;;;13.00;11.07;;;;;;;-0.34;65.44;95766.72;6194292;23;20221;-65
2022/01/16 03:24:29;;;;;;;13.20;10.90;;;;;;;-0.37;65.79;95773.78;6168609;23;20197;-63
2022/01/16 03:27:00;;;;;;;13.10;11.10;;;;;;;-0.42;65.70;95766.22;6169688;23;20193;-63
2022/01/16 03:29:27;;;;;;;13.47;12.07;;;;;;;-0.33;65.59;95776.16;6194967;23;20258;-63
2022/01/16 03:31:54;;;;;;;13.20;10.67;;;;;;;-0.33;65.44;95770.16;6169151;23;20217;-62
2022/01/16 03:34:20;;;;;;;11.67;10.10;;;;;;;-0.29;65.89;95772.53;6168468;23;20209;-65
2022/01/16 03:36:45;;;;;;;12.03;10.33;;;;;;;-0.31;65.17;95778.69;6168886;23;20213;-64
2022/01/16 03:39:11;;;;;;;12.23;10.87;;;;;;;-0.32;65.53;95770.09;6169626;23;20205;-65
2022/01/16 03:41:37;;;;;;;12.50;10.57;;;;;;;-0.31;65.50;95783.84;6168733;23;20212;-67
2022/01/16 03:44:04;;;;;;;14.40;11.27;;;;;;;-0.28;65.30;95783.72;6169031;23;20210;-66
2022/01/16 03:46:34;;;;;;;12.77;11.40;;;;;;;-0.29;64.97;95782.03;6169790;23;20194;-69
2022/01/16 03:49:14;;;;;;;12.57;11.27;;;;;;;-0.27;65.05;95778.47;6168961;23;20225;-67
2022/01/16 03:51:42;;;;;;;12.73;10.47;;;;;;;-0.30;65.15;95788.09;6168345;23;20182;-63
2022/01/16 03:54:09;;;;;;;11.97;10.63;;;;;;;-0.22;65.04;95783.44;6194388;23;20209;-64
2022/01/16 03:56:35;;;;;;;12.80;10.70;;;;;;;-0.29;65.22;95788.03;6168403;23;20194;-66
2022/01/16 03:59:01;;;;;;;11.93;10.13;;;;;;;-0.35;64.99;95787.47;6168390;23;20265;-64
2022/01/16 04:01:27;;;;;;;12.50;11.20;;;;;;;-0.30;64.85;95786.34;6169243;23;20228;-62
2022/01/16 04:03:53;;;;;;;13.67;10.77;;;;;;;-0.20;64.48;95793.72;6169664;23;20194;-63
2022/01/16 04:06:19;;;;;;;11.80;10.60;;;;;;;-0.12;64.05;95783.88;6193777;23;20188;-63
2022/01/16 04:08:50;;;;;;;13.23;11.40;;;;;;;-0.14;63.99;95794.25;6193054;23;20221;-65
2022/01/16 04:11:16;;;;;;;11.93;10.23;;;;;;;-0.10;64.00;95798.41;6168636;23;20206;-62
2022/01/16 04:13:49;;;;;;;12.63;9.93;;;;;;;-0.13;63.78;95795.13;6194293;23;20244;-62
2022/01/16 04:16:15;;;;;;;13.07;10.63;;;;;;;-0.18;64.23;95799.66;6194371;23;20205;-64
2022/01/16 04:18:41;;;;;;;11.70;10.47;;;;;;;-0.18;64.31;95802.25;6168927;23;20245;-62
2022/01/16 04:21:06;;;;;;;12.87;10.33;;;;;;;-0.21;64.35;95805.81;6195788;23;20174;-64
2022/01/16 04:23:32;;;;;;;11.63;10.43;;;;;;;-0.25;64.35;95814.59;6168497;23;20202;-66
2022/01/16 04:25:57;;;;;;;13.23;10.70;;;;;;;-0.19;63.82;95823.81;6193981;23;20194;-64
2022/01/16 04:28:24;;;;;;;12.20;10.80;;;;;;;-0.26;64.01;95807.75;6167484;23;20201;-64
2022/01/16 04:30:51;;;;;;;13.20;10.93;;;;;;;-0.20;63.92;95810.06;6192470;23;20196;-64
2022/01/16 04:33:17;;;;;;;14.00;10.53;;;;;;;-0.18;63.62;95818.59;6168506;23;20186;-64
2022/01/16 04:35:43;;;;;;;15.37;11.50;;;;;;;-0.16;63.62;95821.94;6194548;23;20261;-65
2022/01/16 04:38:08;;;;;;;11.57;9.93;;;;;;;-0.26;64.00;95836.19;6169198;23;20193;-67
2022/01/16 04:40:43;;;;;;;12.27;10.40;;;;;;;-0.25;63.74;95830.91;6192439;23;20209;-66
2022/01/16 04:45:59;;;;;;;11.83;10.20;;;;;;;-0.22;63.56;95817.88;6193363;23;20287;-63
2022/01/16 04:48:25;;;;;;;12.00;10.13;;;;;;;-0.24;63.61;95829.19;6194448;23;20182;-66
2022/01/16 04:50:50;;;;;;;12.90;10.33;;;;;;;-0.17;63.65;95815.09;6168309;23;20251;-63
2022/01/16 04:53:16;;;;;;;11.37;10.17;;;;;;;-0.19;63.40;95814.31;6167859;23;20194;-63
2022/01/16 04:55:43;;;;;;;13.53;11.23;;;;;;;-0.26;63.71;95812.91;6168662;23;20193;-66
2022/01/16 04:58:08;;;;;;;13.10;11.13;;;;;;;-0.27;63.43;95816.38;6193687;23;20205;-65
2022/01/16 05:00:34;;;;;;;12.77;10.77;;;;;;;-0.17;63.54;95811.66;6168345;23;20182;-64
2022/01/16 05:02:59;;;;;;;11.77;10.20;;;;;;;-0.07;63.07;95818.94;6168294;23;20233;-63
2022/01/16 05:05:25;;;;;;;13.43;10.70;;;;;;;-0.10;63.25;95821.66;6194022;23;20194;-66
2022/01/16 05:07:50;;;;;;;13.30;10.67;;;;;;;-0.25;63.34;95809.41;6193522;23;20214;-65
2022/01/16 05:10:16;;;;;;;11.60;9.63;;;;;;;-0.24;63.51;95818.88;6168273;23;20206;-63
2022/01/16 05:12:45;;;;;;;13.80;10.97;;;;;;;-0.22;63.29;95815.28;6194156;23;20216;-63
2022/01/16 05:18:11;;;;;;;13.20;11.47;;;;;;;-0.21;63.52;95808.38;6133294;23;20201;-63
2022/01/16 05:20:37;;;;;;;23.97;17.33;;;;;;;-0.17;63.45;95809.09;6108180;23;20215;-65
2022/01/16 05:23:02;;;;;;;23.50;18.27;;;;;;;-0.40;64.06;95816.09;6132955;23;20360;-67
2022/01/16 05:25:28;;;;;;;24.97;17.63;;;;;;;-0.33;64.14;95816.66;6132237;23;20222;-67
2022/01/16 05:27:53;;;;;;;19.20;15.07;;;;;;;-0.43;64.35;95799.88;6132926;23;20210;-64
2022/01/16 05:30:19;;;;;;;22.43;17.57;;;;;;;-0.29;64.24;95813.06;6134027;23;20206;-64
2022/01/16 05:32:44;;;;;;;17.17;14.20;;;;;;;-0.17;63.76;95812.50;6132296;23;20200;-65
2022/01/16 05:35:10;;;;;;;15.70;13.83;;;;;;;-0.09;63.00;95815.59;6132545;23;20195;-66
2022/01/16 05:37:36;;;;;;;16.90;13.80;;;;;;;-0.08;62.97;95819.88;6108200;23;20233;-65
2022/01/16 05:40:02;;;;;;;16.90;13.40;;;;;;;-0.08;62.75;95817.28;6132888;23;20226;-64
2022/01/16 05:42:28;;;;;;;25.87;18.50;;;;;;;-0.16;63.21;95813.34;6132520;23;20203;-63
2022/01/16 05:44:53;;;;;;;21.73;15.90;;;;;;;-0.15;63.61;95815.03;6133496;23;20246;-63
2022/01/16 05:47:19;;;;;;;17.33;14.60;;;;;;;-0.13;63.57;95826.97;6108023;23;20207;-64
2022/01/16 05:49:44;;;;;;;18.40;15.50;;;;;;;-0.20;63.47;95820.38;6107404;23;20207;-64
2022/01/16 05:52:12;;;;;;;11.43;10.07;;;;;;;-0.11;62.59;95816.56;6164131;23;20253;-64
2022/01/16 05:54:37;;;;;;;14.00;11.57;;;;;;;-0.05;62.57;95831.81;6169077;23;20194;-64
2022/01/16 05:57:03;;;;;;;13.90;11.20;;;;;;;-0.13;62.79;95831.31;6196254;23;20186;-65
2022/01/16 05:59:29;;;;;;;15.87;12.53;;;;;;;-0.04;62.96;95843.84;6170229;23;20194;-64
2022/01/16 06:01:54;;;;;;;19.77;16.07;;;;;;;0.02;63.04;95845.31;6195553;23;20201;-63
2022/01/16 06:04:20;;;;;;;20.37;17.17;;;;;;;0.05;63.28;95837.41;6169872;23;20202;-63
2022/01/16 06:06:45;;;;;;;21.50;15.83;;;;;;;0.05;62.69;95840.00;6171034;23;20250;-64
2022/01/16 06:09:11;;;;;;;22.63;17.73;;;;;;;0.13;62.67;95840.50;6170363;23;20208;-64
2022/01/16 06:11:36;;;;;;;21.50;16.33;;;;;;;-0.05;62.91;95830.06;6194828;23;20224;-65
2022/01/16 06:14:02;;;;;;;22.07;17.37;;;;;;;-0.02;63.08;95831.69;6194538;23;20194;-64
2022/01/16 06:16:27;;;;;;;21.73;16.47;;;;;;;0.02;62.77;95833.22;6194696;23;20205;-63
2022/01/16 06:18:53;;;;;;;20.03;15.77;;;;;;;-0.03;63.07;95836.03;6167282;23;20209;-64
2022/01/16 06:21:19;;;;;;;15.60;12.23;;;;;;;0.08;62.31;95843.31;6194627;23;20225;-64
2022/01/16 06:23:44;;;;;;;11.37;10.17;;;;;;;0.08;61.11;95839.84;6170031;23;20194;-68
2022/01/16 06:26:09;;;;;;;12.63;10.23;;;;;;;0.08;61.04;95842.44;6170082;23;20209;-67
2022/01/16 06:28:35;;;;;;;12.07;10.23;;;;;;;0.16;60.54;95850.69;6169589;23;20201;-68
2022/01/16 06:31:02;;;;;;;11.53;9.40;;;;;;;0.04;60.74;95843.50;6169295;23;20213;-65
2022/01/16 06:33:28;;;;;;;11.13;9.47;;;;;;;0.11;60.38;95855.25;6170168;23;20194;-64
2022/01/16 06:35:53;;;;;;;12.00;10.40;;;;;;;0.10;60.67;95851.81;6170425;23;20211;-64
2022/01/16 06:38:19;;;;;;;13.50;9.50;;;;;;;0.15;60.63;95855.03;6169357;23;20287;-64
2022/01/16 06:40:44;;;;;;;11.67;9.70;;;;;;;0.11;59.90;95866.44;6170338;23;20209;-65
2022/01/16 06:43:10;;;;;;;10.37;9.10;;;;;;;0.14;59.75;95868.88;6194423;23;20194;-65
2022/01/16 06:45:35;;;;;;;11.73;9.53;;;;;;;0.22;59.94;95866.78;6168352;23;20190;-65
2022/01/16 06:48:01;;;;;;;12.47;9.47;;;;;;;0.26;59.33;95869.25;6168835;23;20201;-64
2022/01/16 06:50:27;;;;;;;12.60;10.80;;;;;;;0.26;59.69;95864.06;6169300;23;20206;-65
2022/01/16 06:52:52;;;;;;;18.37;12.80;;;;;;;0.33;59.85;95862.91;6195492;23;20268;-65
2022/01/16 06:55:18;;;;;;;20.13;15.23;;;;;;;0.35;60.16;95872.25;6194488;23;20224;-65
2022/01/16 06:57:43;;;;;;;26.23;19.30;;;;;;;0.47;60.66;95873.44;6169701;23;20186;-66
2022/01/16 07:00:09;;;;;;;20.20;16.43;;;;;;;0.44;60.37;95876.19;6170772;23;20198;-64
2022/01/16 07:02:35;;;;;;;21.23;16.40;;;;;;;0.48;59.72;95872.53;6169091;23;20252;-63
2022/01/16 07:05:02;;;;;;;21.47;14.33;;;;;;;0.48;59.11;95874.28;6169091;23;20206;-63
2022/01/16 07:07:28;;;;;;;18.77;14.90;;;;;;;0.50;59.30;95888.81;6195267;23;20194;-64
2022/01/16 07:09:54;;;;;;;15.97;14.10;;;;;;;0.54;58.45;95884.38;6169147;23;20232;-64
2022/01/16 07:12:21;;;;;;;16.37;13.03;;;;;;;0.64;57.97;95898.56;6145387;23;20214;-64
2022/01/16 07:14:48;;;;;;;14.20;12.03;;;;;;;0.58;57.67;95901.44;6194469;23;20224;-64
2022/01/16 07:17:13;;;;;;;15.07;12.43;;;;;;;0.72;57.31;95896.44;6168746;23;20260;-64
2022/01/16 07:19:39;;;;;;;15.57;11.10;;;;;;;0.64;57.70;95894.25;6169042;23;20206;-63
2022/01/16 07:22:05;;;;;;;10.57;9.27;;;;;;;0.68;57.01;95894.94;6194568;23;20213;-62
2022/01/16 07:24:30;;;;;;;12.97;10.67;;;;;;;0.75;56.92;95890.28;6168855;23;20201;-63
2022/01/16 07:26:58;;;;;;;13.27;10.37;;;;;;;0.67;56.98;95898.44;6194775;23;20178;-64
2022/01/16 07:29:23;;;;;;;12.10;10.73;;;;;;;0.57;57.38;95892.00;6168293;23;20202;-63
2022/01/16 07:31:49;;;;;;;16.00;12.30;;;;;;;0.44;57.52;95900.31;6169405;23;20205;-62
2022/01/16 07:34:14;;;;;;;14.17;11.00;;;;;;;0.41;58.02;95894.44;6169521;23;20218;-62
2022/01/16 07:36:40;;;;;;;15.37;11.30;;;;;;;0.64;57.50;95903.72;6194133;23;20237;-63
2022/01/16 07:39:05;;;;;;;15.00;12.40;;;;;;;0.68;57.54;95891.50;6168877;23;20185;-63
2022/01/16 07:41:31;;;;;;;16.00;13.00;;;;;;;0.61;57.85;95904.69;6168699;23;20198;-62
2022/01/16 07:43:57;;;;;;;19.87;14.20;;;;;;;0.75;57.83;95911.88;6193992;23;20280;-63
2022/01/16 07:46:24;;;;;;;16.03;13.83;;;;;;;0.75;57.45;95905.81;6168578;23;20249;-64
2022/01/16 07:48:49;;;;;;;22.50;16.20;;;;;;;0.62;58.30;95902.97;6194303;23;20221;-63
2022/01/16 07:51:15;;;;;;;18.60;14.87;;;;;;;0.65;58.09;95910.59;6169449;23;20185;-64
2022/01/16 07:53:40;;;;;;;18.93;14.90;;;;;;;0.69;58.01;95906.94;6168600;23;20201;-64
2022/01/16 07:56:06;;;;;;;19.00;16.20;;;;;;;0.81;58.10;95915.91;6167841;23;20213;-62
2022/01/16 07:58:32;;;;;;;23.20;16.97;;;;;;;0.85;58.13;95933.81;6193885;23;20193;-63
2022/01/16 08:00:58;;;;;;;23.53;17.93;;;;;;;0.85;58.14;95936.41;6192321;23;20231;-63
2022/01/16 08:03:23;;;;;;;20.60;16.97;;;;;;;0.97;57.97;95924.66;6192767;23;20170;-62
2022/01/16 08:05:49;;;;;;;18.77;15.73;;;;;;;1.09;57.88;95920.63;6166927;23;20210;-63
2022/01/16 08:08:14;;;;;;;22.37;17.50;;;;;;;1.18;57.21;95929.75;6167796;23;20206;-63
2022/01/16 08:10:41;;;;;;;19.57;15.83;;;;;;;1.17;57.25;95915.94;6194211;23;20233;-62
2022/01/16 08:13:06;;;;;;;19.00;15.83;;;;;;;1.17;56.83;95905.56;6168247;23;20213;-62
2022/01/16 08:15:32;;;;;;;18.87;15.77;;;;;;;1.47;56.72;95921.41;6168577;23;20170;-62
2022/01/16 08:17:57;;;;;;;22.07;17.07;;;;;;;1.50;56.63;95916.09;6169145;23;20213;-63
2022/01/16 08:20:23;;;;;;;19.13;15.63;;;;;;;1.72;55.56;95921.03;6168846;23;20194;-63
2022/01/16 08:22:48;;;;;;;22.10;17.87;;;;;;;1.70;56.05;95919.44;6168096;23;20202;-65
2022/01/16 08:25:14;;;;;;;20.93;16.47;;;;;;;1.77;55.50;95919.06;6194607;23;20226;-63
2022/01/16 08:27:40;;;;;;;23.27;17.80;;;;;;;1.85;55.43;95910.06;6169002;23;20190;-64
2022/01/16 08:30:07;;;;;;;20.73;16.60;;;;;;;1.86;55.59;95901.38;6194850;23;20192;-62
2022/01/16 08:32:32;;;;;;;21.47;17.20;;;;;;;1.91;55.25;95908.00;6168492;23;20202;-62
2022/01/16 08:34:58;;;;;;;22.87;17.73;;;;;;;1.87;55.40;95914.28;6191947;23;20224;-63
2022/01/16 08:37:23;;;;;;;22.27;17.47;;;;;;;1.77;55.79;95916.47;6164617;23;20194;-63
2022/01/16 08:39:49;;;;;;;23.90;18.60;;;;;;;1.58;56.17;95905.34;6167604;23;20214;-63
2022/01/16 08:42:15;;;;;;;23.20;18.07;;;;;;;1.56;55.98;95903.75;6194305;23;20178;-64
2022/01/16 08:44:42;;;;;;;22.63;18.40;;;;;;;1.64;55.76;95910.22;6168915;23;20288;-64
2022/01/16 08:47:08;;;;;;;23.73;18.53;;;;;;;1.54;55.97;95914.16;6167148;23;20193;-62
2022/01/16 08:49:34;;;;;;;24.60;18.57;;;;;;;1.62;56.11;95913.78;6167346;23;20202;-63
2022/01/16 08:51:59;;;;;;;21.30;18.03;;;;;;;1.72;56.17;95913.28;6167195;23;20221;-64
2022/01/16 08:54:25;;;;;;;22.53;17.23;;;;;;;1.87;55.70;95900.44;6166795;23;20193;-66
2022/01/16 08:56:50;;;;;;;21.30;17.43;;;;;;;1.98;55.00;95903.34;6194025;23;20262;-64
2022/01/16 08:59:16;;;;;;;22.57;17.47;;;;;;;2.00;54.69;95901.50;6167565;23;20233;-62
2022/01/16 09:01:42;;;;;;;22.53;17.97;;;;;;;1.94;55.00;95892.28;6167972;23;20198;-65
2022/01/16 09:04:07;;;;;;;23.93;18.40;;;;;;;1.95;54.91;95893.09;6167696;23;20201;-63
2022/01/16 09:06:33;;;;;;;23.63;17.73;;;;;;;1.97;55.14;95891.28;6167577;23;20185;-62
2022/01/16 09:08:58;;;;;;;20.43;15.60;;;;;;;2.36;53.67;95891.00;6192898;23;20198;-64
2022/01/16 09:11:25;;;;;;;22.70;17.10;;;;;;;2.21;54.25;95891.78;6167636;23;20228;-62
2022/01/16 09:13:52;;;;;;;23.00;17.80;;;;;;;2.37;53.87;95886.63;6165434;23;20250;-63
2022/01/16 09:16:19;;;;;;;22.57;17.43;;;;;;;2.37;53.57;95881.44;6167420;23;20201;-62
2022/01/16 09:18:45;;;;;;;19.97;16.53;;;;;;;2.65;53.14;95878.22;6194145;23;20186;-63
2022/01/16 09:21:10;;;;;;;23.00;16.80;;;;;;;2.27;53.39;95877.66;6167782;23;20236;-62
2022/01/16 09:23:37;;;;;;;19.87;17.60;;;;;;;2.31;53.30;95879.19;6166730;23;20261;-63
2022/01/16 09:26:02;;;;;;;19.43;17.33;;;;;;;2.34;53.53;95874.66;6167180;23;20276;-63
2022/01/16 09:28:28;;;;;;;22.47;18.30;;;;;;;2.49;52.84;95865.22;6167773;23;20205;-64
2022/01/16 09:30:53;;;;;;;23.77;17.70;;;;;;;2.48;52.82;95863.53;6195190;23;20209;-65
2022/01/16 09:33:19;;;;;;;22.23;16.70;;;;;;;2.81;53.11;95865.25;6169229;23;20196;-62
2022/01/16 09:35:44;;;;;;;19.87;16.40;;;;;;;2.87;52.12;95867.50;6196138;23;20198;-66
2022/01/16 09:38:10;;;;;;;19.93;17.03;;;;;;;2.65;52.18;95855.69;6169644;23;20206;-68
2022/01/16 09:40:36;;;;;;;21.73;16.43;;;;;;;2.60;52.88;95859.47;6169250;23;20275;-65
2022/01/16 09:43:05;;;;;;;20.00;15.50;;;;;;;2.84;52.41;95849.50;6193662;23;20264;-70
2022/01/16 09:45:31;;;;;;;21.00;14.83;;;;;;;3.15;51.97;95848.59;6167627;23;20185;-62
2022/01/16 09:47:57;;;;;;;24.80;19.07;;;;;;;3.27;50.97;95852.28;6169776;23;20186;-62
2022/01/16 09:50:26;;;;;;;24.33;17.47;;;;;;;3.20;50.88;95843.16;6166126;23;20202;-62
2022/01/16 09:52:52;;;;;;;18.73;14.00;;;;;;;3.02;51.62;95843.28;6193794;23;20209;-63
2022/01/16 09:55:20;;;;;;;15.60;11.67;;;;;;;3.09;51.87;95838.56;6195386;23;20213;-62
2022/01/16 09:57:46;;;;;;;14.97;12.67;;;;;;;3.16;51.50;95828.69;6194707;23;20206;-63
2022/01/16 10:00:14;;;;;;;16.80;12.90;;;;;;;3.27;50.76;95840.13;6195395;23;20205;-67
2022/01/16 10:02:40;;;;;;;19.43;13.63;;;;;;;3.07;51.05;95823.09;6194482;23;20216;-63
2022/01/16 10:05:22;;;;;;;18.57;13.93;;;;;;;3.30;50.64;95820.94;6169106;23;20206;-63
2022/01/16 10:07:48;;;;;;;20.40;15.10;;;;;;;3.26;50.86;95815.06;6195208;23;20228;-63
2022/01/16 10:10:14;;;;;;;16.17;11.87;;;;;;;3.13;50.52;95823.63;6165093;23;20226;-65
2022/01/16 10:12:49;;;;;;;17.43;12.00;;;;;;;3.21;50.40;95816.25;6166637;23;20202;-63
2022/01/16 10:15:16;;;;;;;14.20;12.13;;;;;;;3.33;50.17;95809.50;6165936;23;20225;-65
2022/01/16 10:17:51;;;;;;;13.67;12.27;;;;;;;3.39;49.97;95807.38;6165439;23;20218;-63
2022/01/16 10:20:18;;;;;;;13.40;11.83;;;;;;;3.41;49.52;95807.31;6163559;23;20209;-63
2022/01/16 10:22:43;;;;;;;13.13;11.73;;;;;;;3.33;50.12;95804.31;6163542;23;20245;-63
2022/01/16 10:25:10;;;;;;;14.20;12.00;;;;;;;3.49;49.82;95802.50;6162077;23;20203;-64
2022/01/16 10:27:38;;;;;;;13.97;12.40;;;;;;;3.72;49.19;95796.78;6164219;23;20199;-64
2022/01/16 10:30:09;;;;;;;17.83;12.40;;;;;;;3.90;48.81;95804.41;6165582;23;20179;-62
2022/01/16 10:32:44;;;;;;;16.33;12.27;;;;;;;4.06;48.03;95797.34;6164233;23;20202;-65
2022/01/16 10:35:15;;;;;;;15.97;12.10;;;;;;;4.16;47.92;95788.06;6165488;23;20210;-63
2022/01/16 10:37:52;;;;;;;12.90;11.60;;;;;;;4.45;47.79;95785.44;6164566;23;20268;-63
2022/01/16 10:40:33;;;;;;;14.30;11.27;;;;;;;4.50;47.09;95777.34;6164386;23;20194;-62
2022/01/16 10:43:04;;;;;;;14.40;12.20;;;;;;;4.15;48.00;95772.56;6164377;23;20203;-62
2022/01/16 10:45:30;;;;;;;14.17;11.93;;;;;;;4.18;47.80;95774.97;6165290;23;20194;-63
2022/01/16 10:47:58;;;;;;;17.00;11.93;;;;;;;4.47;47.60;95791.38;6165594;23;20197;-62
2022/01/16 10:50:25;;;;;;;17.20;12.07;;;;;;;4.60;46.81;95773.22;6165902;23;20257;-63
2022/01/16 10:53:05;;;;;;;17.37;12.20;;;;;;;5.00;46.05;95781.94;6162474;23;20226;-63
2022/01/16 10:55:34;;;;;;;16.13;12.53;;;;;;;5.09;45.71;95767.47;6163700;23;20207;-63
2022/01/16 10:58:12;;;;;;;14.77;12.17;;;;;;;5.09;44.68;95765.69;6165510;23;20195;-62
2022/01/16 11:00:40;;;;;;;15.03;11.63;;;;;;;4.91;45.57;95758.22;6189149;23;20178;-64
2022/01/16 11:03:07;;;;;;;16.80;11.43;;;;;;;5.15;44.82;95759.25;6166106;23;20175;-65
2022/01/16 11:05:38;;;;;;;14.27;11.87;;;;;;;5.44;44.14;95753.88;6164201;23;20229;-66
2022/01/16 11:08:12;;;;;;;15.23;12.37;;;;;;;5.41;44.00;95747.09;6163908;23;20217;-63
2022/01/16 11:10:45;;;;;;;14.03;12.13;;;;;;;5.60;43.38;95751.09;6193420;23;20197;-63
2022/01/16 11:13:16;;;;;;;15.47;12.50;;;;;;;5.72;43.59;95752.84;6193421;23;20194;-63
2022/01/16 11:15:45;;;;;;;16.20;12.43;;;;;;;6.03;42.93;95749.00;6195000;23;20170;-63
2022/01/16 11:18:12;;;;;;;18.23;13.07;;;;;;;6.08;42.37;95744.31;6195183;23;20214;-63
2022/01/16 11:20:40;;;;;;;17.73;13.70;;;;;;;6.01;42.79;95737.84;6194402;23;20276;-65
2022/01/16 11:23:26;;;;;;;17.67;13.83;;;;;;;6.28;42.72;95740.31;6168984;23;20253;-63
2022/01/16 11:25:58;;;;;;;16.60;13.50;;;;;;;6.40;41.84;95736.00;6194554;23;20213;-65
2022/01/16 11:28:24;;;;;;;17.23;13.70;;;;;;;6.50;41.54;95733.59;6168011;23;20194;-63
2022/01/16 11:30:52;;;;;;;16.90;13.33;;;;;;;6.17;42.13;95738.47;6193587;23;20193;-63
2022/01/16 11:33:19;;;;;;;16.63;13.73;;;;;;;6.00;42.69;95733.56;6169241;23;20213;-61
2022/01/16 11:35:52;;;;;;;14.53;12.80;;;;;;;6.27;41.94;95727.34;6194824;23;20240;-65
2022/01/16 11:38:29;;;;;;;14.27;12.77;;;;;;;5.90;42.30;95725.50;6168763;23;20257;-65
2022/01/16 11:40:54;;;;;;;15.47;12.30;;;;;;;5.84;42.67;95709.44;6194367;23;20225;-65
2022/01/16 11:43:34;;;;;;;17.27;13.17;;;;;;;6.50;41.21;95718.72;6168077;23;20194;-65
2022/01/16 11:46:10;;;;;;;18.17;12.47;;;;;;;6.48;41.14;95717.16;6168483;23;20206;-62
2022/01/16 11:48:40;;;;;;;17.53;13.37;;;;;;;6.83;40.24;95704.16;6168468;23;20185;-61
2022/01/16 11:51:32;;;;;;;15.20;13.10;;;;;;;7.11;40.33;95707.34;6168211;23;20189;-62
2022/01/16 11:54:21;;;;;;;19.13;14.20;;;;;;;7.13;39.87;95706.28;6051135;23;20220;-62
2022/01/16 11:56:50;;;;;;;18.50;14.43;;;;;;;7.64;39.37;95710.34;6051527;23;20230;-63
2022/01/16 11:59:20;;;;;;;15.30;13.70;;;;;;;7.81;38.25;95707.28;6050453;23;20200;-65
2022/01/16 12:01:51;;;;;;;14.60;12.93;;;;;;;8.10;37.82;95701.56;6074189;23;20211;-64
2022/01/16 12:04:29;;;;;;;18.50;13.63;;;;;;;8.43;36.91;95699.91;6050587;23;20207;-64
2022/01/16 12:07:00;;;;;;;17.13;13.80;;;;;;;8.65;36.33;95702.47;6050578;23;20204;-64